• Join FlightAware (Why Join?)
  • Login
  • US Flag 
08:55AM EST


 

Airport Tracker/Info


-or-


 

Live Flight TrackerFlight Track Log ✈ ASQ5861 ✈ 17-Jun-2013 ✈ KCWA - KORD

Flight Track Log - Related Links

Times and Time Zones

All times are in EDT time to prevent confusion due to time zone crossing. See the ASQ5861 flight status page for this flight to view local times or setup timezone preferences in your user account.

Time Position Orientation Groundspeed Altitude Reporting Facility
EDT Latitude Longitude Course Direction KTS MPH feet Rate Location/Type
04:28PM 44.7242 -89.6803 160° South 229 264 4,500  Level Minneapolis Center
04:29PM 44.6997 -89.5822 109° East 256 295 6,800 2,220 Climbing Minneapolis Center
04:30PM 44.6778 -89.4744 106° East 273 314 9,200 1,980 Climbing Minneapolis Center
04:31PM 44.6531 -89.3542 106° East 302 348 10,900 1,320 Climbing Minneapolis Center
04:32PM 44.5820 -88.9641 125° Southeast  Level FlightAware Approximate
04:32PM 44.6253 -89.2164 106° East 352 405 12,000  Level Minneapolis Center
04:33PM 44.5953 -89.0700 106° East 371 427 13,900 1,500 Climbing Minneapolis Center
04:34PM 44.5675 -88.9383 106° East 372 428 15,200 1,200 Climbing Minneapolis Center
04:35PM 44.5017 -88.8211 128° Southeast 393 452 16,400 1,020 Climbing Minneapolis Center
04:36PM 44.4053 -88.7581 155° Southeast 385 443 17,400 1,080 Climbing Minneapolis Center
04:37PM 44.2889 -88.6811 155° Southeast 396 456 18,700 1,140 Climbing Minneapolis Center
04:38PM 44.1853 -88.6158 156° South 405 466 19,800 960 Climbing Minneapolis Center
04:39PM 44.0797 -88.5478 155° Southeast 414 476 20,800 780 Climbing Minneapolis Center
04:40PM 44.0256 -88.5111 154° Southeast 425 489 21,000 60 Climbing Chicago Center
04:41PM 43.9119 -88.4383 155° Southeast 445 512 20,900 -1,440 Descending Chicago Center
04:42PM 43.7408 -88.3275 155° Southeast 448 516 17,300 -2,820 Descending Minneapolis Center
04:43PM 43.6878 -88.2942 156° South 433 498 15,100 -2,880 Descending Chicago Center
04:44PM 43.5856 -88.2286 155° Southeast 406 467 13,100 -1,020 Descending Chicago Center
04:45PM 43.4842 -88.1608 154° Southeast 400 460 13,000 -60 Descending Chicago Center
04:46PM 43.3836 -88.0800 150° Southeast 412 474 13,000  Level Chicago Center
04:47PM 43.2667 -87.9853 149° Southeast 414 476 13,100  Climbing Chicago Center
04:48PM 43.1661 -87.9039 149° Southeast 417 480 13,000 -300 Descending Chicago Center
04:49PM 43.0656 -87.8228 149° Southeast 418 481 12,500 -840 Descending Chicago Center
04:50PM 42.9700 -87.7478 150° Southeast 402 463 11,300 -840 Descending Chicago Center
04:51PM 42.8764 -87.6728 150° Southeast 392 451 10,800 -660 Descending Chicago Center
04:52PM 42.7872 -87.6522 170° South 332 382 10,000 -1,260 Descending Chicago Center
04:53PM 42.6950 -87.6364 173° South 291 335 8,300 -1,440 Descending Chicago Center
04:54PM 42.6178 -87.6250 174° South 282 325 7,100 -660 Descending Chicago Center
04:55PM 42.5431 -87.6139 174° South 272 313 7,000 -60 Descending Chicago Center
04:56PM 42.4667 -87.6050 175° South 273 314 7,000  Level Chicago Center
04:57PM 42.3897 -87.5944 174° South 276 318 7,100  Climbing Chicago Center
04:58PM 42.3092 -87.5850 175° South 275 316 7,100 -480 Level Chicago Center
04:59PM 42.2331 -87.5767 175° South 276 318 6,200 -960 Descending Chicago Center
05:00PM 42.1583 -87.5664 174° South 273 314 5,200 -1,080 Descending Chicago Center
05:01PM 42.0919 -87.6328 217° Southwest 259 298 4,000 -1,080 Descending Chicago Center
05:03PM 42.0519 -87.6992 231° Southwest 244 281 3,000 -780 Descending Chicago Center
05:04PM 42.0233 -87.7581 237° Southwest 214 246 2,400 -540 Descending Chicago Center
05:05PM 42.0044 -87.8117 245° Southwest 184 212 1,900 -600 Descending Chicago Center
05:06PM 42.0022 -87.8611 267° West 157 181 1,200 -720 Descending Chicago Center